createdAt,value
2023-02-11T00:00:52.421Z,206
2023-02-11T00:03:22.290Z,207
2023-02-11T00:05:52.461Z,201
2023-02-11T00:08:22.171Z,201
2023-02-11T00:10:52.266Z,196
2023-02-11T00:13:22.071Z,190
2023-02-11T00:15:52.073Z,179
2023-02-11T00:18:21.819Z,175
2023-02-11T00:20:51.885Z,180
2023-02-11T00:23:21.966Z,188
2023-02-11T00:25:52.289Z,190
2023-02-11T00:28:22.091Z,187
2023-02-11T00:30:52.267Z,181
2023-02-11T00:33:21.985Z,191
2023-02-11T00:35:52.282Z,198
2023-02-11T00:38:22.114Z,192
2023-02-11T00:40:52.162Z,181
2023-02-11T00:43:24.886Z,194
2023-02-11T00:45:55.036Z,174
2023-02-11T00:48:27.088Z,188
2023-02-11T00:50:56.714Z,194
2023-02-11T00:53:26.818Z,191
2023-02-11T00:56:04.383Z,209
2023-02-11T00:58:33.617Z,191
2023-02-11T01:03:39.626Z,186
2023-02-11T01:06:12.432Z,184
2023-02-11T01:08:42.969Z,181
2023-02-11T01:13:44.161Z,164
2023-02-11T01:16:21.210Z,165
2023-02-11T01:18:58.650Z,178
2023-02-11T01:21:28.489Z,169
2023-02-11T01:24:04.858Z,167
2023-02-11T01:26:34.383Z,155
2023-02-11T01:29:04.237Z,166
2023-02-11T01:31:34.370Z,181
2023-02-11T01:34:04.352Z,167
2023-02-11T01:36:41.243Z,174
2023-02-11T01:39:11.101Z,178
2023-02-11T01:41:44.629Z,172
2023-02-11T01:44:20.612Z,172
2023-02-11T01:46:50.949Z,183
2023-02-11T01:49:20.786Z,170
2023-02-11T01:51:50.924Z,165
2023-02-11T01:54:20.838Z,169
2023-02-11T01:56:50.913Z,171
2023-02-11T01:59:20.814Z,189
2023-02-11T02:01:50.777Z,175
2023-02-11T02:04:20.793Z,178
2023-02-11T02:06:50.881Z,183
2023-02-11T02:09:20.862Z,201
2023-02-11T02:11:56.429Z,174
2023-02-11T02:14:26.344Z,180
2023-02-11T02:16:56.525Z,176
2023-02-11T02:19:26.501Z,184
2023-02-11T02:21:56.473Z,194
2023-02-11T02:24:26.562Z,195
2023-02-11T02:26:56.243Z,179
2023-02-11T02:29:26.396Z,178
2023-02-11T02:31:56.453Z,163
2023-02-11T02:34:26.332Z,172
2023-02-11T02:36:56.349Z,170
2023-02-11T02:39:26.460Z,177
2023-02-11T02:41:56.476Z,168
2023-02-11T02:44:26.315Z,173
2023-02-11T02:46:56.537Z,169
2023-02-11T02:49:26.371Z,175
2023-02-11T02:51:56.484Z,158
2023-02-11T02:54:26.604Z,160
2023-02-11T02:56:56.450Z,171
2023-02-11T02:59:26.549Z,179
2023-02-11T03:01:56.778Z,172
2023-02-11T03:04:26.792Z,181
2023-02-11T03:06:56.641Z,175
2023-02-11T03:09:26.429Z,173
2023-02-11T03:11:56.437Z,184
2023-02-11T03:14:26.264Z,180
2023-02-11T03:16:56.288Z,176
2023-02-11T03:19:26.109Z,188
2023-02-11T03:21:56.040Z,183
2023-02-11T03:24:26.031Z,187
2023-02-11T03:26:56.126Z,178
2023-02-11T03:29:30.267Z,168
2023-02-11T03:32:00.483Z,179
2023-02-11T03:34:30.050Z,180
2023-02-11T03:37:00.096Z,174
2023-02-11T03:39:29.987Z,167
2023-02-11T03:41:59.993Z,164
2023-02-11T03:44:29.918Z,172
2023-02-11T03:46:59.650Z,174
2023-02-11T03:49:29.764Z,160
2023-02-11T03:51:59.708Z,173
2023-02-11T03:54:29.593Z,179
2023-02-11T03:56:59.626Z,166
2023-02-11T03:59:29.450Z,177
2023-02-11T04:01:59.151Z,177
2023-02-11T04:04:29.060Z,179
2023-02-11T04:06:59.060Z,162
2023-02-11T04:09:29.106Z,168
2023-02-11T04:11:59.651Z,178
2023-02-11T04:14:29.586Z,177
2023-02-11T04:16:59.490Z,186
2023-02-11T04:19:29.229Z,170
2023-02-11T04:21:59.201Z,173
2023-02-11T04:24:29.211Z,172
2023-02-11T04:26:59.204Z,173
2023-02-11T04:29:29.214Z,175
2023-02-11T04:31:59.651Z,179
2023-02-11T04:34:29.532Z,163
2023-02-11T04:36:59.589Z,175
2023-02-11T04:39:29.487Z,176
2023-02-11T04:41:59.506Z,183
2023-02-11T04:44:29.415Z,169
2023-02-11T04:46:59.579Z,181
2023-02-11T04:49:29.224Z,161
2023-02-11T04:51:59.222Z,173
2023-02-11T04:54:29.121Z,183
2023-02-11T04:56:59.130Z,183
2023-02-11T04:59:28.862Z,179
2023-02-11T05:01:58.871Z,174
2023-02-11T05:04:29.126Z,188
2023-02-11T05:06:59.458Z,174
2023-02-11T05:09:29.251Z,177
2023-02-11T05:11:59.250Z,185
2023-02-11T05:14:29.303Z,176
2023-02-11T05:16:59.555Z,171
2023-02-11T05:19:29.347Z,185
2023-02-11T05:22:02.864Z,186
2023-02-11T05:24:29.339Z,182
2023-02-11T05:26:59.516Z,160
2023-02-11T05:29:29.654Z,180
2023-02-11T05:31:59.684Z,180
2023-02-11T05:34:29.864Z,177
2023-02-11T05:36:59.786Z,179
2023-02-11T05:39:29.926Z,189
2023-02-11T05:41:59.824Z,180
2023-02-11T05:44:29.872Z,186
2023-02-11T05:46:59.857Z,201
2023-02-11T05:49:29.949Z,198
2023-02-11T05:52:00.115Z,197
2023-02-11T05:54:30.066Z,206
2023-02-11T05:57:00.328Z,191
2023-02-11T05:59:30.289Z,178
2023-02-11T06:02:00.207Z,186
2023-02-11T06:04:30.290Z,187
2023-02-11T06:07:00.132Z,194
2023-02-11T06:09:30.208Z,186
2023-02-11T06:12:00.351Z,186
2023-02-11T06:14:30.446Z,190
2023-02-11T06:17:00.516Z,182
2023-02-11T06:19:30.632Z,193
2023-02-11T06:22:00.667Z,182
2023-02-11T06:24:51.277Z,183
2023-02-11T06:27:00.852Z,191
2023-02-11T06:29:30.691Z,182
2023-02-11T06:32:00.886Z,194
2023-02-11T06:34:30.646Z,194
2023-02-11T06:37:00.760Z,213
2023-02-11T06:39:30.807Z,204
2023-02-11T06:42:00.633Z,196
2023-02-11T06:44:30.550Z,218
2023-02-11T06:47:00.266Z,215
2023-02-11T06:49:29.870Z,210
2023-02-11T06:51:59.940Z,215
2023-02-11T06:54:31.356Z,199
2023-02-11T06:57:00.490Z,219
2023-02-11T06:59:30.351Z,202
2023-02-11T07:02:00.346Z,195
2023-02-11T07:04:30.555Z,197
2023-02-11T07:07:06.672Z,201
2023-02-11T07:09:36.474Z,193
2023-02-11T07:12:06.385Z,200
2023-02-11T07:14:35.927Z,202
2023-02-11T07:17:05.842Z,193
2023-02-11T07:19:35.636Z,204
2023-02-11T07:22:11.706Z,206
2023-02-11T07:24:41.669Z,197
2023-02-11T07:27:11.622Z,204
2023-02-11T07:29:41.288Z,193
2023-02-11T07:32:12.572Z,208
2023-02-11T07:34:42.236Z,214
2023-02-11T07:37:12.011Z,219
2023-02-11T07:39:42.533Z,232
2023-02-11T07:42:12.469Z,225
2023-02-11T07:44:42.589Z,219
2023-02-11T07:47:14.528Z,214
2023-02-11T07:49:43.921Z,215
2023-02-11T07:52:13.830Z,224
2023-02-11T07:54:43.860Z,205
2023-02-11T07:57:14.423Z,216
2023-02-11T07:59:44.249Z,212
2023-02-11T08:02:14.875Z,225
2023-02-11T08:04:45.713Z,236
2023-02-11T08:07:15.581Z,228
2023-02-11T08:09:45.554Z,227
2023-02-11T08:12:15.484Z,238
2023-02-11T08:14:45.570Z,227
2023-02-11T08:17:16.262Z,270
2023-02-11T08:19:46.010Z,269
2023-02-11T08:22:16.071Z,229
2023-02-11T08:24:46.150Z,242
2023-02-11T08:27:16.079Z,222
2023-02-11T08:29:46.072Z,215
2023-02-11T08:32:16.841Z,209
2023-02-11T08:34:46.674Z,170
2023-02-11T08:37:22.518Z,118
2023-02-11T08:39:52.827Z,112
2023-02-11T08:42:22.983Z,149
2023-02-11T08:44:52.968Z,151
2023-02-11T08:47:23.777Z,126
2023-02-11T08:49:54.471Z,112
2023-02-11T08:52:23.877Z,97
2023-02-11T08:54:53.854Z,89
2023-02-11T08:57:24.533Z,94
2023-02-11T08:59:54.459Z,90
2023-02-11T09:02:25.393Z,82
2023-02-11T09:04:55.181Z,82
2023-02-11T09:07:25.264Z,98
2023-02-11T09:09:55.138Z,88
2023-02-11T09:12:24.863Z,84
2023-02-11T09:14:54.535Z,121
2023-02-11T09:17:24.575Z,90
2023-02-11T09:19:54.330Z,83
2023-02-11T09:22:24.483Z,88
2023-02-11T09:24:54.449Z,80
2023-02-11T09:27:24.595Z,84
2023-02-11T09:29:54.341Z,88
2023-02-11T09:32:24.927Z,88
2023-02-11T09:34:54.972Z,88
2023-02-11T09:37:25.903Z,86
2023-02-11T09:39:55.980Z,84
2023-02-11T09:42:26.709Z,92
2023-02-11T09:44:56.321Z,86
2023-02-11T09:47:26.578Z,91
2023-02-11T09:49:56.480Z,91
2023-02-11T09:52:26.007Z,92
2023-02-11T09:54:56.061Z,95
2023-02-11T09:57:28.790Z,88
2023-02-11T09:59:56.019Z,100
2023-02-11T10:02:26.066Z,92
2023-02-11T10:04:55.882Z,87
2023-02-11T10:07:25.777Z,89
2023-02-11T10:09:59.716Z,86
2023-02-11T10:12:29.369Z,118
2023-02-11T10:14:59.428Z,94
2023-02-11T10:17:29.518Z,86
2023-02-11T10:20:00.163Z,106
2023-02-11T10:22:30.126Z,92
2023-02-11T10:25:01.227Z,99
2023-02-11T10:27:30.864Z,93
2023-02-11T10:30:01.660Z,80
2023-02-11T10:32:33.512Z,104
2023-02-11T10:35:03.950Z,102
2023-02-11T10:37:33.691Z,94
2023-02-11T10:40:04.420Z,95
2023-02-11T10:42:34.362Z,83
2023-02-11T10:45:04.015Z,101
2023-02-11T10:47:33.846Z,100
2023-02-11T10:50:06.668Z,89
2023-02-11T10:52:36.875Z,85
2023-02-11T10:55:06.988Z,71
2023-02-11T10:57:37.017Z,71
2023-02-11T11:00:07.126Z,70
2023-02-11T11:02:37.067Z,72
2023-02-11T11:05:07.219Z,77
2023-02-11T11:07:37.371Z,69
2023-02-11T11:10:06.879Z,74
2023-02-11T11:12:36.922Z,75
2023-02-11T11:15:06.855Z,68
2023-02-11T11:17:36.717Z,64
2023-02-11T11:20:09.361Z,69
2023-02-11T11:22:44.457Z,66
2023-02-11T11:25:13.344Z,68
2023-02-11T11:27:43.291Z,64
2023-02-11T11:30:12.990Z,75
2023-02-11T11:35:13.366Z,72
2023-02-11T11:37:44.556Z,69
2023-02-11T11:40:14.372Z,67
2023-02-11T11:42:44.280Z,68
2023-02-11T11:45:14.156Z,67
2023-02-11T11:47:44.732Z,68
2023-02-11T11:50:14.850Z,68
2023-02-11T11:52:44.689Z,71
2023-02-11T11:55:14.766Z,72
2023-02-11T11:57:44.873Z,67
2023-02-11T12:00:15.057Z,74
2023-02-11T12:02:45.151Z,75
2023-02-11T12:05:14.898Z,67
2023-02-11T12:07:44.831Z,68
2023-02-11T12:10:17.071Z,67
2023-02-11T12:12:47.086Z,63
2023-02-11T12:15:16.925Z,60
2023-02-11T12:17:48.496Z,76
2023-02-11T12:20:19.177Z,68
2023-02-11T12:22:55.007Z,65
2023-02-11T12:25:29.025Z,67
2023-02-11T12:27:59.077Z,68
2023-02-11T12:30:29.872Z,68
2023-02-11T12:33:00.008Z,72
2023-02-11T12:35:30.461Z,66
2023-02-11T12:38:03.757Z,66
2023-02-11T12:40:34.363Z,72
2023-02-11T12:43:04.287Z,69
2023-02-11T12:45:34.809Z,70
2023-02-11T12:48:04.731Z,72
2023-02-11T12:50:35.550Z,85
2023-02-11T12:53:05.451Z,70
2023-02-11T12:55:35.741Z,68
2023-02-11T12:58:05.799Z,68
2023-02-11T13:00:35.994Z,69
2023-02-11T13:03:05.916Z,68
2023-02-11T13:05:35.663Z,67
2023-02-11T13:08:06.300Z,65
2023-02-11T13:10:36.583Z,69
2023-02-11T13:13:05.798Z,72
2023-02-11T13:15:35.743Z,76
2023-02-11T13:18:06.161Z,81
2023-02-11T13:20:38.966Z,76
2023-02-11T13:23:23.110Z,85
2023-02-11T13:25:55.397Z,78
2023-02-11T13:28:26.169Z,84
2023-02-11T13:30:57.130Z,82
2023-02-11T13:33:26.677Z,76
2023-02-11T13:35:56.796Z,86
2023-02-11T13:38:26.993Z,72
2023-02-11T13:40:57.145Z,74
2023-02-11T13:43:27.995Z,72
2023-02-11T13:45:57.950Z,81
2023-02-11T13:48:27.463Z,82
2023-02-11T13:50:57.451Z,68
2023-02-11T13:53:29.312Z,74
2023-02-11T13:55:59.317Z,68
2023-02-11T13:58:29.990Z,69
2023-02-11T14:00:59.870Z,76
2023-02-11T14:03:30.439Z,70
2023-02-11T14:05:59.770Z,70
2023-02-11T14:08:30.510Z,67
2023-02-11T14:11:01.012Z,67
2023-02-11T14:13:30.657Z,67
2023-02-11T14:16:05.274Z,67
2023-02-11T14:18:35.901Z,73
2023-02-11T14:21:05.865Z,68
2023-02-11T14:23:47.193Z,65
2023-02-11T14:26:23.289Z,64
2023-02-11T14:28:53.242Z,68
2023-02-11T14:34:22.801Z,70
2023-02-11T14:39:39.663Z,68
2023-02-11T14:42:09.604Z,72
2023-02-11T14:44:39.539Z,68
2023-02-11T14:47:10.160Z,65
2023-02-11T14:49:44.571Z,68
2023-02-11T14:52:14.783Z,67
2023-02-11T14:54:46.274Z,71
2023-02-11T14:57:15.971Z,66
2023-02-11T14:59:45.957Z,68
2023-02-11T15:04:54.445Z,68
2023-02-11T15:07:24.164Z,69
2023-02-11T15:09:54.269Z,70
2023-02-11T15:12:24.978Z,68
2023-02-11T15:17:44.160Z,68
2023-02-11T15:20:27.786Z,68
2023-02-11T15:23:13.031Z,68
2023-02-11T15:25:45.694Z,68
2023-02-11T15:28:15.055Z,78
2023-02-11T15:30:44.696Z,75
2023-02-11T15:33:17.418Z,72
2023-02-11T15:38:27.029Z,79
2023-02-11T15:40:56.691Z,78
2023-02-11T15:43:25.735Z,76
2023-02-11T15:45:55.368Z,84
2023-02-11T15:48:26.090Z,76
2023-02-11T15:51:01.540Z,71
2023-02-11T15:53:31.938Z,75
2023-02-11T15:56:01.325Z,76
2023-02-11T15:58:38.859Z,70
2023-02-11T16:01:08.132Z,76
2023-02-11T16:03:38.896Z,75
2023-02-11T16:06:14.708Z,84
2023-02-11T16:08:45.070Z,75
2023-02-11T16:11:14.686Z,82
2023-02-11T16:13:44.643Z,79
2023-02-11T16:16:14.240Z,80
2023-02-11T16:19:04.150Z,84
2023-02-11T16:21:22.473Z,76
2023-02-11T16:23:52.164Z,76
2023-02-11T16:26:21.746Z,91
2023-02-11T16:28:51.914Z,97
2023-02-11T16:31:23.260Z,96
2023-02-11T16:33:53.784Z,92
2023-02-11T16:36:25.411Z,84
2023-02-11T16:41:24.308Z,98
2023-02-11T16:43:59.672Z,93
2023-02-11T16:46:29.698Z,99
2023-02-11T16:49:00.224Z,107
2023-02-11T16:51:30.313Z,130
2023-02-11T16:54:00.176Z,167
2023-02-11T16:56:41.589Z,164
2023-02-11T17:01:56.685Z,157
2023-02-11T17:04:26.624Z,138
2023-02-11T17:06:58.459Z,141
2023-02-11T17:09:29.856Z,136
2023-02-11T17:11:56.477Z,141
2023-02-11T17:14:26.087Z,138
2023-02-11T17:17:01.992Z,129
2023-02-11T17:19:39.560Z,148
2023-02-11T17:22:09.211Z,154
2023-02-11T17:24:39.601Z,146
2023-02-11T17:27:09.632Z,161
2023-02-11T17:29:40.348Z,170
2023-02-11T17:32:10.882Z,165
2023-02-11T17:34:40.997Z,164
2023-02-11T17:37:14.322Z,171
2023-02-11T17:39:45.206Z,172
2023-02-11T17:42:15.916Z,181
2023-02-11T17:44:45.825Z,199
2023-02-11T17:47:16.722Z,187
2023-02-11T17:49:53.210Z,185
2023-02-11T17:52:23.109Z,222
2023-02-11T17:54:53.218Z,202
2023-02-11T17:57:23.247Z,212
2023-02-11T17:59:53.185Z,215
2023-02-11T18:02:23.404Z,212
2023-02-11T18:04:53.609Z,229
2023-02-11T18:07:23.808Z,219
2023-02-11T18:09:53.616Z,225
2023-02-11T18:15:00.805Z,266
2023-02-11T18:17:31.658Z,244
2023-02-11T18:20:01.566Z,238
2023-02-11T18:22:32.360Z,251
2023-02-11T18:25:02.403Z,256
2023-02-11T18:27:32.196Z,246
2023-02-11T18:30:02.387Z,222
2023-02-11T18:32:32.360Z,220
2023-02-11T18:35:02.342Z,209
2023-02-11T18:37:33.169Z,230
2023-02-11T18:40:02.924Z,208
2023-02-11T18:42:32.984Z,213
2023-02-11T18:45:03.026Z,219
2023-02-11T18:47:33.791Z,205
2023-02-11T18:50:03.943Z,215
2023-02-11T18:52:34.690Z,196
2023-02-11T18:55:04.291Z,212
2023-02-11T18:57:34.226Z,208
2023-02-11T19:00:05.706Z,217
2023-02-11T19:02:36.444Z,225
2023-02-11T19:05:07.169Z,234
2023-02-11T19:07:37.651Z,229
2023-02-11T19:10:07.660Z,235
2023-02-11T19:12:38.402Z,268
2023-02-11T19:15:08.336Z,251
2023-02-11T19:17:38.157Z,237
2023-02-11T19:20:08.975Z,235
2023-02-11T19:22:38.974Z,256
2023-02-11T19:25:08.939Z,254
2023-02-11T19:27:39.031Z,266
2023-02-11T19:30:08.997Z,246
2023-02-11T19:32:41.241Z,252
2023-02-11T19:35:11.202Z,232
2023-02-11T19:37:43.382Z,207
2023-02-11T19:40:15.238Z,218
2023-02-11T19:42:45.398Z,217
2023-02-11T19:45:15.294Z,213
2023-02-11T19:47:45.533Z,199
2023-02-11T19:50:15.545Z,195
2023-02-11T19:52:45.102Z,222
2023-02-11T19:55:16.994Z,225
2023-02-11T19:57:47.886Z,252
2023-02-11T20:00:20.852Z,261
2023-02-11T20:02:50.736Z,243
2023-02-11T20:05:20.640Z,226
2023-02-11T20:07:51.095Z,222
2023-02-11T20:10:20.984Z,218
2023-02-11T20:12:51.684Z,217
2023-02-11T20:15:21.585Z,231
2023-02-11T20:17:51.546Z,241
2023-02-11T20:20:21.550Z,235
2023-02-11T20:22:50.620Z,263
2023-02-11T20:25:20.700Z,251
2023-02-11T20:27:50.593Z,242
2023-02-11T20:30:21.389Z,234
2023-02-11T20:32:51.310Z,220
2023-02-11T20:35:21.991Z,220
2023-02-11T20:37:51.974Z,222
2023-02-11T20:40:22.105Z,213
2023-02-11T20:42:52.226Z,225
2023-02-11T20:45:22.864Z,219
2023-02-11T20:47:52.896Z,217
2023-02-11T20:50:24.865Z,222
2023-02-11T20:52:55.368Z,213
2023-02-11T20:55:25.758Z,215
2023-02-11T20:57:55.775Z,208
2023-02-11T21:00:25.345Z,216
2023-02-11T21:02:56.147Z,206
2023-02-11T21:05:25.849Z,196
2023-02-11T21:07:55.110Z,196
2023-02-11T21:10:25.575Z,227
2023-02-11T21:12:55.578Z,225
2023-02-11T21:15:26.335Z,212
2023-02-11T21:17:59.658Z,216
2023-02-11T21:20:29.500Z,224
2023-02-11T21:22:59.550Z,197
2023-02-11T21:25:29.816Z,219
2023-02-11T21:28:02.079Z,216
2023-02-11T21:30:32.476Z,221
2023-02-11T21:33:02.457Z,216
2023-02-11T21:35:33.093Z,217
2023-02-11T21:38:03.340Z,235
2023-02-11T21:40:33.386Z,222
2023-02-11T21:43:03.226Z,231
2023-02-11T21:45:34.027Z,221
2023-02-11T21:48:04.049Z,230
2023-02-11T21:50:34.164Z,225
2023-02-11T21:53:06.891Z,228
2023-02-11T21:55:34.912Z,210
2023-02-11T21:58:04.608Z,229
2023-02-11T22:00:34.875Z,233
2023-02-11T22:03:07.850Z,228
2023-02-11T22:05:42.454Z,248
2023-02-11T22:08:12.458Z,229
2023-02-11T22:10:42.684Z,235
2023-02-11T22:13:12.605Z,248
2023-02-11T22:15:45.103Z,250
2023-02-11T22:18:15.138Z,249
2023-02-11T22:20:45.910Z,235
2023-02-11T22:23:15.998Z,223
2023-02-11T22:25:46.755Z,206
2023-02-11T22:28:16.920Z,218
2023-02-11T22:30:47.072Z,199
2023-02-11T22:33:17.133Z,202
2023-02-11T22:35:46.716Z,209
2023-02-11T22:38:16.780Z,205
2023-02-11T22:40:46.716Z,195
2023-02-11T22:43:16.860Z,225
2023-02-11T22:45:46.745Z,222
2023-02-11T22:48:23.148Z,238
2023-02-11T22:50:51.324Z,245
2023-02-11T22:53:21.103Z,232
2023-02-11T22:55:50.855Z,236
2023-02-11T22:58:20.684Z,230
2023-02-11T23:00:49.880Z,236
2023-02-11T23:03:19.650Z,227
2023-02-11T23:05:49.755Z,221
2023-02-11T23:08:19.798Z,204
2023-02-11T23:10:50.144Z,197
2023-02-11T23:13:20.561Z,180
2023-02-11T23:15:50.505Z,181
2023-02-11T23:18:20.523Z,193
2023-02-11T23:20:50.739Z,175
2023-02-11T23:23:20.872Z,158
2023-02-11T23:25:56.861Z,170
2023-02-11T23:28:26.520Z,183
2023-02-11T23:31:03.823Z,177
2023-02-11T23:33:35.655Z,170
2023-02-11T23:36:05.227Z,172
2023-02-11T23:38:35.430Z,176
2023-02-11T23:41:05.562Z,172
2023-02-11T23:43:35.723Z,177
2023-02-11T23:46:05.819Z,175
2023-02-11T23:48:35.833Z,179
2023-02-11T23:51:05.815Z,184
2023-02-11T23:53:35.912Z,192
2023-02-11T23:56:06.126Z,177
2023-02-11T23:58:36.250Z,190
